sensor_id;sensor_type;location;lat;lon;timestamp;P1;durP1;ratioP1;P2;durP2;ratioP2
5277;SDS011;2662;51.194;6.614;2023-04-09T00:01:24;40.70;;;20.50;;
5277;SDS011;2662;51.194;6.614;2023-04-09T00:03:51;36.60;;;20.07;;
5277;SDS011;2662;51.194;6.614;2023-04-09T00:06:18;36.23;;;19.23;;
5277;SDS011;2662;51.194;6.614;2023-04-09T00:08:44;39.53;;;19.70;;
5277;SDS011;2662;51.194;6.614;2023-04-09T00:11:11;37.40;;;19.17;;
5277;SDS011;2662;51.194;6.614;2023-04-09T00:13:39;37.23;;;18.47;;
5277;SDS011;2662;51.194;6.614;2023-04-09T00:16:06;38.40;;;19.20;;
5277;SDS011;2662;51.194;6.614;2023-04-09T00:18:33;41.43;;;20.53;;
5277;SDS011;2662;51.194;6.614;2023-04-09T00:21:00;34.87;;;19.10;;
5277;SDS011;2662;51.194;6.614;2023-04-09T00:23:26;36.07;;;20.00;;
5277;SDS011;2662;51.194;6.614;2023-04-09T00:25:53;37.73;;;19.77;;
5277;SDS011;2662;51.194;6.614;2023-04-09T00:28:20;35.87;;;19.63;;
5277;SDS011;2662;51.194;6.614;2023-04-09T00:30:48;34.53;;;19.37;;
5277;SDS011;2662;51.194;6.614;2023-04-09T00:33:15;38.80;;;19.30;;
5277;SDS011;2662;51.194;6.614;2023-04-09T00:35:41;42.23;;;19.73;;
5277;SDS011;2662;51.194;6.614;2023-04-09T00:38:08;34.53;;;19.70;;
5277;SDS011;2662;51.194;6.614;2023-04-09T00:40:35;40.60;;;19.03;;
5277;SDS011;2662;51.194;6.614;2023-04-09T00:43:02;35.10;;;19.80;;
5277;SDS011;2662;51.194;6.614;2023-04-09T00:45:28;36.70;;;18.70;;
5277;SDS011;2662;51.194;6.614;2023-04-09T00:47:57;37.50;;;19.77;;
5277;SDS011;2662;51.194;6.614;2023-04-09T00:50:24;40.27;;;19.53;;
5277;SDS011;2662;51.194;6.614;2023-04-09T00:52:50;32.70;;;19.10;;
5277;SDS011;2662;51.194;6.614;2023-04-09T00:55:17;37.43;;;20.37;;
5277;SDS011;2662;51.194;6.614;2023-04-09T00:57:45;39.47;;;20.13;;
5277;SDS011;2662;51.194;6.614;2023-04-09T01:00:12;37.30;;;19.73;;
5277;SDS011;2662;51.194;6.614;2023-04-09T01:02:39;38.20;;;20.63;;
5277;SDS011;2662;51.194;6.614;2023-04-09T01:05:08;35.17;;;18.57;;
5277;SDS011;2662;51.194;6.614;2023-04-09T01:07:39;39.47;;;20.97;;
5277;SDS011;2662;51.194;6.614;2023-04-09T01:10:16;39.33;;;19.70;;
5277;SDS011;2662;51.194;6.614;2023-04-09T01:12:51;37.93;;;19.53;;
5277;SDS011;2662;51.194;6.614;2023-04-09T01:15:25;36.57;;;19.93;;
5277;SDS011;2662;51.194;6.614;2023-04-09T01:17:58;44.60;;;19.77;;
5277;SDS011;2662;51.194;6.614;2023-04-09T01:20:33;37.57;;;20.00;;
5277;SDS011;2662;51.194;6.614;2023-04-09T01:23:06;40.47;;;19.97;;
5277;SDS011;2662;51.194;6.614;2023-04-09T01:25:46;39.97;;;20.60;;
5277;SDS011;2662;51.194;6.614;2023-04-09T01:28:28;39.00;;;20.70;;
5277;SDS011;2662;51.194;6.614;2023-04-09T01:30:59;44.37;;;20.60;;
5277;SDS011;2662;51.194;6.614;2023-04-09T01:33:29;46.57;;;24.17;;
5277;SDS011;2662;51.194;6.614;2023-04-09T01:35:57;47.83;;;22.53;;
5277;SDS011;2662;51.194;6.614;2023-04-09T01:38:25;48.57;;;23.07;;
5277;SDS011;2662;51.194;6.614;2023-04-09T01:40:53;46.43;;;22.60;;
5277;SDS011;2662;51.194;6.614;2023-04-09T01:43:20;47.33;;;23.40;;
5277;SDS011;2662;51.194;6.614;2023-04-09T01:45:49;49.07;;;20.07;;
5277;SDS011;2662;51.194;6.614;2023-04-09T01:48:16;40.30;;;20.30;;
5277;SDS011;2662;51.194;6.614;2023-04-09T01:50:44;40.60;;;21.23;;
5277;SDS011;2662;51.194;6.614;2023-04-09T01:53:11;40.33;;;21.60;;
5277;SDS011;2662;51.194;6.614;2023-04-09T01:55:38;41.23;;;20.23;;
5277;SDS011;2662;51.194;6.614;2023-04-09T01:58:05;38.70;;;20.00;;
5277;SDS011;2662;51.194;6.614;2023-04-09T02:00:33;42.10;;;21.37;;
5277;SDS011;2662;51.194;6.614;2023-04-09T02:03:05;36.90;;;19.30;;
5277;SDS011;2662;51.194;6.614;2023-04-09T02:05:36;36.60;;;19.77;;
5277;SDS011;2662;51.194;6.614;2023-04-09T02:08:06;38.30;;;19.90;;
5277;SDS011;2662;51.194;6.614;2023-04-09T02:10:35;40.40;;;20.80;;
5277;SDS011;2662;51.194;6.614;2023-04-09T02:13:05;46.00;;;21.07;;
5277;SDS011;2662;51.194;6.614;2023-04-09T02:15:35;47.20;;;20.03;;
5277;SDS011;2662;51.194;6.614;2023-04-09T02:18:06;39.17;;;19.40;;
5277;SDS011;2662;51.194;6.614;2023-04-09T02:20:46;43.10;;;21.87;;
5277;SDS011;2662;51.194;6.614;2023-04-09T02:23:14;45.70;;;21.90;;
5277;SDS011;2662;51.194;6.614;2023-04-09T02:25:42;49.07;;;23.40;;
5277;SDS011;2662;51.194;6.614;2023-04-09T02:28:09;45.87;;;22.10;;
5277;SDS011;2662;51.194;6.614;2023-04-09T02:30:36;46.40;;;21.80;;
5277;SDS011;2662;51.194;6.614;2023-04-09T02:33:02;50.03;;;24.40;;
5277;SDS011;2662;51.194;6.614;2023-04-09T02:35:30;43.37;;;21.80;;
5277;SDS011;2662;51.194;6.614;2023-04-09T02:37:58;44.07;;;23.23;;
5277;SDS011;2662;51.194;6.614;2023-04-09T02:40:25;45.00;;;22.43;;
5277;SDS011;2662;51.194;6.614;2023-04-09T02:42:52;51.17;;;22.47;;
5277;SDS011;2662;51.194;6.614;2023-04-09T02:45:18;40.53;;;20.60;;
5277;SDS011;2662;51.194;6.614;2023-04-09T02:47:45;39.60;;;19.90;;
5277;SDS011;2662;51.194;6.614;2023-04-09T02:50:12;37.10;;;18.50;;
5277;SDS011;2662;51.194;6.614;2023-04-09T02:52:40;49.77;;;21.23;;
5277;SDS011;2662;51.194;6.614;2023-04-09T02:55:07;40.40;;;19.57;;
5277;SDS011;2662;51.194;6.614;2023-04-09T02:57:33;38.93;;;20.30;;
5277;SDS011;2662;51.194;6.614;2023-04-09T03:00:01;38.93;;;18.83;;
5277;SDS011;2662;51.194;6.614;2023-04-09T03:02:28;38.57;;;19.27;;
5277;SDS011;2662;51.194;6.614;2023-04-09T03:04:55;39.83;;;19.20;;
5277;SDS011;2662;51.194;6.614;2023-04-09T03:07:21;41.20;;;19.33;;
5277;SDS011;2662;51.194;6.614;2023-04-09T03:09:49;37.00;;;19.13;;
5277;SDS011;2662;51.194;6.614;2023-04-09T03:12:16;38.50;;;18.80;;
5277;SDS011;2662;51.194;6.614;2023-04-09T03:14:43;44.73;;;21.90;;
5277;SDS011;2662;51.194;6.614;2023-04-09T03:17:09;36.30;;;19.87;;
5277;SDS011;2662;51.194;6.614;2023-04-09T03:19:36;38.80;;;19.23;;
5277;SDS011;2662;51.194;6.614;2023-04-09T03:22:03;37.90;;;19.43;;
5277;SDS011;2662;51.194;6.614;2023-04-09T03:24:30;40.73;;;21.00;;
5277;SDS011;2662;51.194;6.614;2023-04-09T03:26:58;39.37;;;19.90;;
5277;SDS011;2662;51.194;6.614;2023-04-09T03:29:25;44.57;;;19.67;;
5277;SDS011;2662;51.194;6.614;2023-04-09T03:31:52;34.23;;;18.50;;
5277;SDS011;2662;51.194;6.614;2023-04-09T03:34:19;41.10;;;19.10;;
5277;SDS011;2662;51.194;6.614;2023-04-09T03:36:45;32.50;;;18.40;;
5277;SDS011;2662;51.194;6.614;2023-04-09T03:39:12;37.60;;;18.67;;
5277;SDS011;2662;51.194;6.614;2023-04-09T03:41:39;36.70;;;18.60;;
5277;SDS011;2662;51.194;6.614;2023-04-09T03:44:07;34.90;;;18.70;;
5277;SDS011;2662;51.194;6.614;2023-04-09T03:46:33;36.13;;;18.60;;
5277;SDS011;2662;51.194;6.614;2023-04-09T03:49:00;35.33;;;17.40;;
5277;SDS011;2662;51.194;6.614;2023-04-09T03:51:27;32.10;;;17.30;;
5277;SDS011;2662;51.194;6.614;2023-04-09T03:53:53;32.10;;;17.87;;
5277;SDS011;2662;51.194;6.614;2023-04-09T03:56:20;32.80;;;17.70;;
5277;SDS011;2662;51.194;6.614;2023-04-09T03:58:47;34.17;;;17.20;;
5277;SDS011;2662;51.194;6.614;2023-04-09T04:01:15;38.50;;;18.43;;
5277;SDS011;2662;51.194;6.614;2023-04-09T04:03:42;40.20;;;19.10;;
5277;SDS011;2662;51.194;6.614;2023-04-09T04:06:09;35.60;;;18.80;;
5277;SDS011;2662;51.194;6.614;2023-04-09T04:08:35;35.70;;;16.33;;
5277;SDS011;2662;51.194;6.614;2023-04-09T04:11:02;42.30;;;18.33;;
5277;SDS011;2662;51.194;6.614;2023-04-09T04:13:29;35.43;;;18.70;;
5277;SDS011;2662;51.194;6.614;2023-04-09T04:15:56;36.80;;;18.63;;
5277;SDS011;2662;51.194;6.614;2023-04-09T04:18:24;34.83;;;19.13;;
5277;SDS011;2662;51.194;6.614;2023-04-09T04:20:51;36.60;;;19.30;;
5277;SDS011;2662;51.194;6.614;2023-04-09T04:23:18;39.37;;;17.37;;
5277;SDS011;2662;51.194;6.614;2023-04-09T04:25:44;40.90;;;19.20;;
5277;SDS011;2662;51.194;6.614;2023-04-09T04:28:11;36.40;;;18.03;;
5277;SDS011;2662;51.194;6.614;2023-04-09T04:30:39;36.70;;;18.53;;
5277;SDS011;2662;51.194;6.614;2023-04-09T04:33:06;36.80;;;18.97;;
5277;SDS011;2662;51.194;6.614;2023-04-09T04:35:34;35.97;;;19.13;;
5277;SDS011;2662;51.194;6.614;2023-04-09T04:38:01;36.47;;;18.50;;
5277;SDS011;2662;51.194;6.614;2023-04-09T04:40:28;36.37;;;19.20;;
5277;SDS011;2662;51.194;6.614;2023-04-09T04:42:54;34.77;;;19.13;;
5277;SDS011;2662;51.194;6.614;2023-04-09T04:45:21;34.47;;;18.20;;
5277;SDS011;2662;51.194;6.614;2023-04-09T04:47:48;36.13;;;19.07;;
5277;SDS011;2662;51.194;6.614;2023-04-09T04:50:15;34.10;;;18.57;;
5277;SDS011;2662;51.194;6.614;2023-04-09T04:52:43;38.57;;;18.03;;
5277;SDS011;2662;51.194;6.614;2023-04-09T04:55:09;41.97;;;18.90;;
5277;SDS011;2662;51.194;6.614;2023-04-09T04:57:36;36.83;;;19.37;;
5277;SDS011;2662;51.194;6.614;2023-04-09T05:00:03;34.73;;;18.33;;
5277;SDS011;2662;51.194;6.614;2023-04-09T05:02:30;35.23;;;19.27;;
5277;SDS011;2662;51.194;6.614;2023-04-09T05:04:57;38.50;;;19.27;;
5277;SDS011;2662;51.194;6.614;2023-04-09T05:07:24;35.50;;;19.07;;
5277;SDS011;2662;51.194;6.614;2023-04-09T05:09:52;33.47;;;17.70;;
5277;SDS011;2662;51.194;6.614;2023-04-09T05:12:19;35.40;;;19.00;;
5277;SDS011;2662;51.194;6.614;2023-04-09T05:14:46;40.50;;;18.67;;
5277;SDS011;2662;51.194;6.614;2023-04-09T05:17:12;40.83;;;20.03;;
5277;SDS011;2662;51.194;6.614;2023-04-09T05:19:39;37.73;;;19.13;;
5277;SDS011;2662;51.194;6.614;2023-04-09T05:22:06;39.70;;;21.17;;
5277;SDS011;2662;51.194;6.614;2023-04-09T05:24:32;36.13;;;18.80;;
5277;SDS011;2662;51.194;6.614;2023-04-09T05:27:00;39.47;;;18.57;;
5277;SDS011;2662;51.194;6.614;2023-04-09T05:29:27;38.53;;;19.40;;
5277;SDS011;2662;51.194;6.614;2023-04-09T05:31:54;31.50;;;17.30;;
5277;SDS011;2662;51.194;6.614;2023-04-09T05:34:21;41.00;;;19.67;;
5277;SDS011;2662;51.194;6.614;2023-04-09T05:36:47;41.33;;;20.20;;
5277;SDS011;2662;51.194;6.614;2023-04-09T05:39:14;31.03;;;17.90;;
5277;SDS011;2662;51.194;6.614;2023-04-09T05:41:41;31.63;;;16.87;;
5277;SDS011;2662;51.194;6.614;2023-04-09T05:44:10;29.57;;;16.50;;
5277;SDS011;2662;51.194;6.614;2023-04-09T05:46:36;29.70;;;15.90;;
5277;SDS011;2662;51.194;6.614;2023-04-09T05:49:03;30.30;;;15.23;;
5277;SDS011;2662;51.194;6.614;2023-04-09T05:51:30;28.50;;;15.07;;
5277;SDS011;2662;51.194;6.614;2023-04-09T05:53:57;30.53;;;16.10;;
5277;SDS011;2662;51.194;6.614;2023-04-09T05:56:24;29.03;;;15.37;;
5277;SDS011;2662;51.194;6.614;2023-04-09T05:58:52;30.43;;;16.53;;
5277;SDS011;2662;51.194;6.614;2023-04-09T06:01:20;31.73;;;16.80;;
5277;SDS011;2662;51.194;6.614;2023-04-09T06:03:46;31.17;;;18.93;;
5277;SDS011;2662;51.194;6.614;2023-04-09T06:06:13;33.40;;;18.57;;
5277;SDS011;2662;51.194;6.614;2023-04-09T06:08:40;37.60;;;19.50;;
5277;SDS011;2662;51.194;6.614;2023-04-09T06:11:08;35.10;;;18.40;;
5277;SDS011;2662;51.194;6.614;2023-04-09T06:13:35;32.73;;;17.40;;
5277;SDS011;2662;51.194;6.614;2023-04-09T06:16:02;31.40;;;17.67;;
5277;SDS011;2662;51.194;6.614;2023-04-09T06:18:31;27.10;;;15.67;;
5277;SDS011;2662;51.194;6.614;2023-04-09T06:21:01;25.97;;;15.30;;
5277;SDS011;2662;51.194;6.614;2023-04-09T06:23:28;24.10;;;15.40;;
5277;SDS011;2662;51.194;6.614;2023-04-09T06:25:55;25.43;;;15.57;;
5277;SDS011;2662;51.194;6.614;2023-04-09T06:28:21;29.77;;;16.73;;
5277;SDS011;2662;51.194;6.614;2023-04-09T06:30:48;25.83;;;16.07;;
5277;SDS011;2662;51.194;6.614;2023-04-09T06:33:15;26.70;;;16.00;;
5277;SDS011;2662;51.194;6.614;2023-04-09T06:35:43;30.63;;;16.50;;
5277;SDS011;2662;51.194;6.614;2023-04-09T06:38:10;25.37;;;16.73;;
5277;SDS011;2662;51.194;6.614;2023-04-09T06:40:37;24.97;;;16.03;;
5277;SDS011;2662;51.194;6.614;2023-04-09T06:43:04;23.50;;;16.23;;
5277;SDS011;2662;51.194;6.614;2023-04-09T06:45:31;22.00;;;15.90;;
5277;SDS011;2662;51.194;6.614;2023-04-09T06:47:59;24.23;;;15.53;;
5277;SDS011;2662;51.194;6.614;2023-04-09T06:50:26;22.07;;;14.90;;
5277;SDS011;2662;51.194;6.614;2023-04-09T06:52:54;20.90;;;14.80;;
5277;SDS011;2662;51.194;6.614;2023-04-09T06:55:22;22.20;;;15.00;;
5277;SDS011;2662;51.194;6.614;2023-04-09T06:57:50;21.13;;;13.73;;
5277;SDS011;2662;51.194;6.614;2023-04-09T07:00:17;24.33;;;14.00;;
5277;SDS011;2662;51.194;6.614;2023-04-09T07:02:44;19.27;;;14.33;;
5277;SDS011;2662;51.194;6.614;2023-04-09T07:05:11;20.00;;;14.07;;
5277;SDS011;2662;51.194;6.614;2023-04-09T07:07:38;21.70;;;13.93;;
5277;SDS011;2662;51.194;6.614;2023-04-09T07:10:07;21.60;;;13.93;;
5277;SDS011;2662;51.194;6.614;2023-04-09T07:12:34;20.57;;;13.63;;
5277;SDS011;2662;51.194;6.614;2023-04-09T07:15:02;19.10;;;13.30;;
5277;SDS011;2662;51.194;6.614;2023-04-09T07:17:29;18.77;;;13.67;;
5277;SDS011;2662;51.194;6.614;2023-04-09T07:19:56;17.37;;;12.73;;
5277;SDS011;2662;51.194;6.614;2023-04-09T07:22:24;19.33;;;13.73;;
5277;SDS011;2662;51.194;6.614;2023-04-09T07:24:52;19.73;;;13.70;;
5277;SDS011;2662;51.194;6.614;2023-04-09T07:27:20;18.40;;;12.80;;
5277;SDS011;2662;51.194;6.614;2023-04-09T07:29:47;18.33;;;13.50;;
5277;SDS011;2662;51.194;6.614;2023-04-09T07:32:14;19.40;;;13.47;;
5277;SDS011;2662;51.194;6.614;2023-04-09T07:34:41;19.53;;;12.50;;
5277;SDS011;2662;51.194;6.614;2023-04-09T07:37:08;17.37;;;12.97;;
5277;SDS011;2662;51.194;6.614;2023-04-09T07:39:35;21.83;;;12.47;;
5277;SDS011;2662;51.194;6.614;2023-04-09T07:42:02;22.00;;;12.70;;
5277;SDS011;2662;51.194;6.614;2023-04-09T07:44:33;16.10;;;12.10;;
5277;SDS011;2662;51.194;6.614;2023-04-09T07:47:00;16.50;;;11.90;;
5277;SDS011;2662;51.194;6.614;2023-04-09T07:49:27;16.87;;;11.90;;
5277;SDS011;2662;51.194;6.614;2023-04-09T07:51:54;19.53;;;12.33;;
5277;SDS011;2662;51.194;6.614;2023-04-09T07:54:21;16.73;;;11.70;;
5277;SDS011;2662;51.194;6.614;2023-04-09T07:56:48;25.93;;;12.50;;
5277;SDS011;2662;51.194;6.614;2023-04-09T07:59:15;23.07;;;11.93;;
5277;SDS011;2662;51.194;6.614;2023-04-09T08:01:43;17.60;;;12.40;;
5277;SDS011;2662;51.194;6.614;2023-04-09T08:04:10;14.97;;;11.20;;
5277;SDS011;2662;51.194;6.614;2023-04-09T08:06:38;14.10;;;10.47;;
5277;SDS011;2662;51.194;6.614;2023-04-09T08:09:04;15.00;;;11.00;;
5277;SDS011;2662;51.194;6.614;2023-04-09T08:11:31;16.43;;;11.30;;
5277;SDS011;2662;51.194;6.614;2023-04-09T08:13:58;17.50;;;10.90;;
5277;SDS011;2662;51.194;6.614;2023-04-09T08:16:26;14.50;;;10.90;;
5277;SDS011;2662;51.194;6.614;2023-04-09T08:18:55;18.13;;;11.43;;
5277;SDS011;2662;51.194;6.614;2023-04-09T08:21:22;15.10;;;10.20;;
5277;SDS011;2662;51.194;6.614;2023-04-09T08:23:49;12.47;;;9.13;;
5277;SDS011;2662;51.194;6.614;2023-04-09T08:26:25;11.60;;;8.40;;
5277;SDS011;2662;51.194;6.614;2023-04-09T08:28:52;12.20;;;8.67;;
5277;SDS011;2662;51.194;6.614;2023-04-09T08:31:19;12.30;;;8.50;;
5277;SDS011;2662;51.194;6.614;2023-04-09T08:33:46;12.50;;;8.53;;
5277;SDS011;2662;51.194;6.614;2023-04-09T08:36:14;12.07;;;8.20;;
5277;SDS011;2662;51.194;6.614;2023-04-09T08:38:41;12.43;;;8.43;;
5277;SDS011;2662;51.194;6.614;2023-04-09T08:41:15;10.97;;;8.43;;
5277;SDS011;2662;51.194;6.614;2023-04-09T08:43:44;11.97;;;8.60;;
5277;SDS011;2662;51.194;6.614;2023-04-09T08:46:11;12.93;;;8.73;;
5277;SDS011;2662;51.194;6.614;2023-04-09T08:48:41;10.20;;;7.93;;
5277;SDS011;2662;51.194;6.614;2023-04-09T08:51:11;12.43;;;8.30;;
5277;SDS011;2662;51.194;6.614;2023-04-09T08:56:11;11.20;;;7.87;;
5277;SDS011;2662;51.194;6.614;2023-04-09T08:58:41;10.60;;;7.87;;
5277;SDS011;2662;51.194;6.614;2023-04-09T09:01:19;11.10;;;8.23;;
5277;SDS011;2662;51.194;6.614;2023-04-09T09:03:57;10.03;;;7.73;;
5277;SDS011;2662;51.194;6.614;2023-04-09T09:06:26;12.60;;;8.57;;
5277;SDS011;2662;51.194;6.614;2023-04-09T09:09:02;10.40;;;6.60;;
5277;SDS011;2662;51.194;6.614;2023-04-09T09:11:30;7.50;;;6.10;;
5277;SDS011;2662;51.194;6.614;2023-04-09T09:13:59;9.50;;;7.20;;
5277;SDS011;2662;51.194;6.614;2023-04-09T09:16:27;12.00;;;8.20;;
5277;SDS011;2662;51.194;6.614;2023-04-09T09:18:55;8.40;;;6.80;;
5277;SDS011;2662;51.194;6.614;2023-04-09T09:21:22;9.33;;;7.43;;
5277;SDS011;2662;51.194;6.614;2023-04-09T09:23:50;11.10;;;7.87;;
5277;SDS011;2662;51.194;6.614;2023-04-09T09:26:19;9.90;;;7.30;;
5277;SDS011;2662;51.194;6.614;2023-04-09T09:28:48;11.63;;;7.47;;
5277;SDS011;2662;51.194;6.614;2023-04-09T09:31:16;8.47;;;6.70;;
5277;SDS011;2662;51.194;6.614;2023-04-09T09:33:44;8.90;;;6.37;;
5277;SDS011;2662;51.194;6.614;2023-04-09T09:36:11;7.20;;;5.83;;
5277;SDS011;2662;51.194;6.614;2023-04-09T09:38:51;8.13;;;6.43;;
5277;SDS011;2662;51.194;6.614;2023-04-09T09:41:20;7.60;;;5.80;;
5277;SDS011;2662;51.194;6.614;2023-04-09T09:43:47;6.63;;;4.93;;
5277;SDS011;2662;51.194;6.614;2023-04-09T09:46:14;7.10;;;5.50;;
5277;SDS011;2662;51.194;6.614;2023-04-09T09:48:41;7.00;;;6.07;;
5277;SDS011;2662;51.194;6.614;2023-04-09T09:51:09;5.67;;;4.90;;
5277;SDS011;2662;51.194;6.614;2023-04-09T09:53:37;5.17;;;4.60;;
5277;SDS011;2662;51.194;6.614;2023-04-09T09:56:05;6.60;;;4.93;;
5277;SDS011;2662;51.194;6.614;2023-04-09T09:58:39;9.40;;;5.40;;
5277;SDS011;2662;51.194;6.614;2023-04-09T10:01:09;7.80;;;5.10;;
5277;SDS011;2662;51.194;6.614;2023-04-09T10:03:39;7.30;;;5.17;;
5277;SDS011;2662;51.194;6.614;2023-04-09T10:06:08;6.60;;;4.43;;
5277;SDS011;2662;51.194;6.614;2023-04-09T10:08:36;7.07;;;5.13;;
5277;SDS011;2662;51.194;6.614;2023-04-09T10:11:05;5.73;;;4.87;;
5277;SDS011;2662;51.194;6.614;2023-04-09T10:13:33;5.93;;;4.60;;
5277;SDS011;2662;51.194;6.614;2023-04-09T10:16:05;7.03;;;5.30;;
5277;SDS011;2662;51.194;6.614;2023-04-09T10:18:32;6.53;;;5.20;;
5277;SDS011;2662;51.194;6.614;2023-04-09T10:21:00;6.43;;;4.93;;
5277;SDS011;2662;51.194;6.614;2023-04-09T10:23:35;6.60;;;4.73;;
5277;SDS011;2662;51.194;6.614;2023-04-09T10:26:04;7.13;;;4.60;;
5277;SDS011;2662;51.194;6.614;2023-04-09T10:28:31;5.10;;;4.50;;
5277;SDS011;2662;51.194;6.614;2023-04-09T10:30:58;5.93;;;4.77;;
5277;SDS011;2662;51.194;6.614;2023-04-09T10:33:26;5.37;;;4.17;;
5277;SDS011;2662;51.194;6.614;2023-04-09T10:35:53;6.60;;;5.07;;
5277;SDS011;2662;51.194;6.614;2023-04-09T10:38:34;8.07;;;5.33;;
5277;SDS011;2662;51.194;6.614;2023-04-09T10:41:06;6.10;;;5.00;;
5277;SDS011;2662;51.194;6.614;2023-04-09T10:43:35;6.70;;;4.93;;
5277;SDS011;2662;51.194;6.614;2023-04-09T10:46:03;6.53;;;5.50;;
5277;SDS011;2662;51.194;6.614;2023-04-09T10:48:33;7.17;;;5.10;;
5277;SDS011;2662;51.194;6.614;2023-04-09T10:51:01;7.93;;;4.73;;
5277;SDS011;2662;51.194;6.614;2023-04-09T10:53:30;6.87;;;4.97;;
5277;SDS011;2662;51.194;6.614;2023-04-09T10:55:57;6.90;;;4.57;;
5277;SDS011;2662;51.194;6.614;2023-04-09T10:58:25;7.90;;;5.27;;
5277;SDS011;2662;51.194;6.614;2023-04-09T11:00:52;10.13;;;5.93;;
5277;SDS011;2662;51.194;6.614;2023-04-09T11:03:20;6.20;;;4.60;;
5277;SDS011;2662;51.194;6.614;2023-04-09T11:05:54;7.50;;;4.90;;
5277;SDS011;2662;51.194;6.614;2023-04-09T11:08:26;6.90;;;4.90;;
5277;SDS011;2662;51.194;6.614;2023-04-09T11:10:55;7.80;;;5.33;;
5277;SDS011;2662;51.194;6.614;2023-04-09T11:13:22;7.07;;;5.07;;
5277;SDS011;2662;51.194;6.614;2023-04-09T11:15:49;7.40;;;4.63;;
5277;SDS011;2662;51.194;6.614;2023-04-09T11:18:19;6.10;;;4.33;;
5277;SDS011;2662;51.194;6.614;2023-04-09T11:20:47;8.57;;;5.50;;
5277;SDS011;2662;51.194;6.614;2023-04-09T11:23:16;7.53;;;5.60;;
5277;SDS011;2662;51.194;6.614;2023-04-09T11:25:46;7.27;;;5.17;;
5277;SDS011;2662;51.194;6.614;2023-04-09T11:28:14;7.60;;;5.50;;
5277;SDS011;2662;51.194;6.614;2023-04-09T11:30:41;6.63;;;5.00;;
5277;SDS011;2662;51.194;6.614;2023-04-09T11:33:08;7.50;;;5.47;;
5277;SDS011;2662;51.194;6.614;2023-04-09T11:35:35;7.83;;;5.30;;
5277;SDS011;2662;51.194;6.614;2023-04-09T11:38:04;9.67;;;5.47;;
5277;SDS011;2662;51.194;6.614;2023-04-09T11:40:33;10.47;;;5.50;;
5277;SDS011;2662;51.194;6.614;2023-04-09T11:43:00;8.07;;;5.20;;
5277;SDS011;2662;51.194;6.614;2023-04-09T11:45:28;8.33;;;5.40;;
5277;SDS011;2662;51.194;6.614;2023-04-09T11:47:56;7.43;;;5.27;;
5277;SDS011;2662;51.194;6.614;2023-04-09T11:50:23;7.93;;;5.70;;
5277;SDS011;2662;51.194;6.614;2023-04-09T11:52:50;8.70;;;5.73;;
5277;SDS011;2662;51.194;6.614;2023-04-09T11:55:23;10.43;;;5.60;;
5277;SDS011;2662;51.194;6.614;2023-04-09T11:57:53;7.63;;;4.57;;
5277;SDS011;2662;51.194;6.614;2023-04-09T12:00:24;9.93;;;5.93;;
5277;SDS011;2662;51.194;6.614;2023-04-09T12:02:57;7.87;;;5.57;;
5277;SDS011;2662;51.194;6.614;2023-04-09T12:05:26;9.47;;;5.37;;
5277;SDS011;2662;51.194;6.614;2023-04-09T12:07:56;7.47;;;5.43;;
5277;SDS011;2662;51.194;6.614;2023-04-09T12:10:25;10.00;;;6.37;;
5277;SDS011;2662;51.194;6.614;2023-04-09T12:12:54;7.07;;;5.47;;
5277;SDS011;2662;51.194;6.614;2023-04-09T12:15:25;8.80;;;6.57;;
5277;SDS011;2662;51.194;6.614;2023-04-09T12:17:58;8.10;;;6.10;;
5277;SDS011;2662;51.194;6.614;2023-04-09T12:20:26;7.60;;;6.17;;
5277;SDS011;2662;51.194;6.614;2023-04-09T12:22:53;16.93;;;5.00;;
5277;SDS011;2662;51.194;6.614;2023-04-09T12:25:20;7.23;;;5.27;;
5277;SDS011;2662;51.194;6.614;2023-04-09T12:27:47;7.43;;;5.47;;
5277;SDS011;2662;51.194;6.614;2023-04-09T12:30:15;7.23;;;5.37;;
5277;SDS011;2662;51.194;6.614;2023-04-09T12:32:42;6.50;;;5.27;;
5277;SDS011;2662;51.194;6.614;2023-04-09T12:35:09;7.03;;;5.10;;
5277;SDS011;2662;51.194;6.614;2023-04-09T12:37:37;6.40;;;5.20;;
5277;SDS011;2662;51.194;6.614;2023-04-09T12:40:03;6.47;;;5.20;;
5277;SDS011;2662;51.194;6.614;2023-04-09T12:42:31;6.30;;;5.10;;
5277;SDS011;2662;51.194;6.614;2023-04-09T12:44:58;9.67;;;5.80;;
5277;SDS011;2662;51.194;6.614;2023-04-09T12:47:26;8.30;;;5.90;;
5277;SDS011;2662;51.194;6.614;2023-04-09T12:49:53;8.03;;;5.83;;
5277;SDS011;2662;51.194;6.614;2023-04-09T12:52:20;10.87;;;6.67;;
5277;SDS011;2662;51.194;6.614;2023-04-09T12:54:48;9.57;;;6.17;;
5277;SDS011;2662;51.194;6.614;2023-04-09T12:57:15;8.07;;;5.30;;
5277;SDS011;2662;51.194;6.614;2023-04-09T12:59:42;8.37;;;5.90;;
5277;SDS011;2662;51.194;6.614;2023-04-09T13:02:09;8.67;;;5.97;;
5277;SDS011;2662;51.194;6.614;2023-04-09T13:04:37;7.70;;;5.73;;
5277;SDS011;2662;51.194;6.614;2023-04-09T13:07:03;7.57;;;5.60;;
5277;SDS011;2662;51.194;6.614;2023-04-09T13:09:30;7.87;;;5.67;;
5277;SDS011;2662;51.194;6.614;2023-04-09T13:11:58;11.23;;;6.60;;
5277;SDS011;2662;51.194;6.614;2023-04-09T13:14:24;7.53;;;5.80;;
5277;SDS011;2662;51.194;6.614;2023-04-09T13:16:51;8.30;;;5.97;;
5277;SDS011;2662;51.194;6.614;2023-04-09T13:19:18;7.80;;;5.50;;
5277;SDS011;2662;51.194;6.614;2023-04-09T13:21:46;7.10;;;5.90;;
5277;SDS011;2662;51.194;6.614;2023-04-09T13:24:12;6.60;;;5.10;;
5277;SDS011;2662;51.194;6.614;2023-04-09T13:26:39;8.03;;;5.73;;
5277;SDS011;2662;51.194;6.614;2023-04-09T13:29:06;6.70;;;5.57;;
5277;SDS011;2662;51.194;6.614;2023-04-09T13:31:33;6.80;;;5.50;;
5277;SDS011;2662;51.194;6.614;2023-04-09T13:34:01;6.00;;;5.20;;
5277;SDS011;2662;51.194;6.614;2023-04-09T13:36:27;7.23;;;5.00;;
5277;SDS011;2662;51.194;6.614;2023-04-09T13:38:56;5.93;;;4.70;;
5277;SDS011;2662;51.194;6.614;2023-04-09T13:41:28;9.17;;;6.67;;
5277;SDS011;2662;51.194;6.614;2023-04-09T13:43:55;8.20;;;6.37;;
5277;SDS011;2662;51.194;6.614;2023-04-09T13:46:22;8.43;;;6.20;;
5277;SDS011;2662;51.194;6.614;2023-04-09T13:48:49;8.37;;;6.30;;
5277;SDS011;2662;51.194;6.614;2023-04-09T13:51:15;9.83;;;6.87;;
5277;SDS011;2662;51.194;6.614;2023-04-09T13:53:42;10.90;;;7.20;;
5277;SDS011;2662;51.194;6.614;2023-04-09T13:56:11;10.17;;;6.93;;
5277;SDS011;2662;51.194;6.614;2023-04-09T13:58:37;8.83;;;6.03;;
5277;SDS011;2662;51.194;6.614;2023-04-09T14:01:05;6.97;;;5.70;;
5277;SDS011;2662;51.194;6.614;2023-04-09T14:03:32;6.37;;;4.93;;
5277;SDS011;2662;51.194;6.614;2023-04-09T14:05:58;7.60;;;5.80;;
5277;SDS011;2662;51.194;6.614;2023-04-09T14:08:25;8.93;;;5.07;;
5277;SDS011;2662;51.194;6.614;2023-04-09T14:10:52;6.33;;;4.73;;
5277;SDS011;2662;51.194;6.614;2023-04-09T14:13:22;7.00;;;5.30;;
5277;SDS011;2662;51.194;6.614;2023-04-09T14:15:48;7.07;;;6.10;;
5277;SDS011;2662;51.194;6.614;2023-04-09T14:18:15;6.50;;;4.97;;
5277;SDS011;2662;51.194;6.614;2023-04-09T14:20:42;5.77;;;4.83;;
5277;SDS011;2662;51.194;6.614;2023-04-09T14:23:08;6.77;;;5.30;;
5277;SDS011;2662;51.194;6.614;2023-04-09T14:25:35;6.83;;;4.80;;
5277;SDS011;2662;51.194;6.614;2023-04-09T14:28:02;8.07;;;5.90;;
5277;SDS011;2662;51.194;6.614;2023-04-09T14:30:31;12.23;;;6.67;;
5277;SDS011;2662;51.194;6.614;2023-04-09T14:32:57;7.97;;;5.40;;
5277;SDS011;2662;51.194;6.614;2023-04-09T14:35:25;6.27;;;5.20;;
5277;SDS011;2662;51.194;6.614;2023-04-09T14:37:52;7.10;;;5.03;;
5277;SDS011;2662;51.194;6.614;2023-04-09T14:40:19;6.03;;;5.00;;
5277;SDS011;2662;51.194;6.614;2023-04-09T14:42:45;7.50;;;4.90;;
5277;SDS011;2662;51.194;6.614;2023-04-09T14:45:14;5.60;;;4.90;;
5277;SDS011;2662;51.194;6.614;2023-04-09T14:47:42;6.07;;;4.70;;
5277;SDS011;2662;51.194;6.614;2023-04-09T14:50:09;8.77;;;5.80;;
5277;SDS011;2662;51.194;6.614;2023-04-09T14:52:36;7.43;;;5.30;;
5277;SDS011;2662;51.194;6.614;2023-04-09T14:55:04;6.20;;;4.93;;
5277;SDS011;2662;51.194;6.614;2023-04-09T14:57:36;7.90;;;4.83;;
5277;SDS011;2662;51.194;6.614;2023-04-09T15:00:03;5.83;;;4.97;;
5277;SDS011;2662;51.194;6.614;2023-04-09T15:02:31;6.30;;;4.90;;
5277;SDS011;2662;51.194;6.614;2023-04-09T15:05:00;6.07;;;5.17;;